Time;durP1;ratioP1;P1;durP2;ratioP2;P2;SDS_P1;SDS_P2;PMS_P1;PMS_P2;Temp;Humidity;BMP_temperature;BMP_pressure;BME280_temperature;BME280_humidity;BME280_pressure;Samples;Min_cycle;Max_cycle;Signal;HPM_P1;HPM_P2
2022/09/24 00:00:32;;;;;;;10.40;7.87;;;;;;;;;;4990076;28;20173;-43
2022/09/24 00:02:58;;;;;;;11.27;7.70;;;;;;;;;;4982087;28;20177;-43
2022/09/24 00:05:25;;;;;;;10.47;7.17;;;;;;;;;;4986182;28;20204;-43
2022/09/24 00:07:51;;;;;;;9.20;7.80;;;;;;;;;;4985875;28;21098;-42
2022/09/24 00:10:17;;;;;;;9.20;6.87;;;;;;;;;;4989053;28;20858;-42
2022/09/24 00:12:43;;;;;;;8.67;7.07;;;;;;;;;;4990056;28;20257;-43
2022/09/24 00:15:09;;;;;;;10.83;7.00;;;;;;;;;;4988272;28;20170;-42
2022/09/24 00:17:35;;;;;;;8.70;6.47;;;;;;;;;;4986487;28;20169;-43
2022/09/24 00:20:01;;;;;;;7.60;6.30;;;;;;;;;;4988457;28;20203;-42
2022/09/24 00:22:28;;;;;;;9.67;6.57;;;;;;;;;;4989035;28;20220;-42
2022/09/24 00:27:38;;;;;;;10.23;6.67;;;;;;;;;;4988448;28;20570;-42
2022/09/24 00:30:04;;;;;;;8.20;6.17;;;;;;;;;;4989161;28;20231;-42
2022/09/24 00:32:30;;;;;;;9.03;6.53;;;;;;;;;;4987075;28;20177;-42
2022/09/24 00:34:56;;;;;;;9.37;6.37;;;;;;;;;;4987466;28;20169;-42
2022/09/24 00:37:23;;;;;;;5.93;5.30;;;;;;;;;;4987880;28;20974;-44
2022/09/24 00:39:49;;;;;;;8.73;5.57;;;;;;;;;;4986706;28;20174;-44
2022/09/24 00:42:15;;;;;;;9.37;5.93;;;;;;;;;;4988773;28;20192;-43
2022/09/24 00:44:41;;;;;;;5.53;4.70;;;;;;;;;;4991961;28;21131;-43
2022/09/24 00:47:28;;;;;;;8.47;4.80;;;;;;;;;;4984555;28;20173;-43
2022/09/24 00:50:04;;;;;;;6.47;4.80;;;;;;;;;;4988450;28;20661;-43
2022/09/24 00:52:31;;;;;;;7.33;4.57;;;;;;;;;;4993089;28;20176;-43
2022/09/24 00:54:57;;;;;;;7.70;4.63;;;;;;;;;;4989649;28;20170;-44
2022/09/24 00:57:24;;;;;;;6.93;4.47;;;;;;;;;;4990330;28;21280;-43
2022/09/24 00:59:50;;;;;;;6.53;4.27;;;;;;;;;;4985911;28;20181;-43
2022/09/24 01:02:16;;;;;;;6.90;4.17;;;;;;;;;;4989435;28;20233;-42
2022/09/24 01:04:43;;;;;;;7.73;4.40;;;;;;;;;;4992621;28;20177;-42
2022/09/24 01:07:09;;;;;;;8.70;4.13;;;;;;;;;;4989912;28;20181;-43
2022/09/24 01:09:35;;;;;;;4.07;3.47;;;;;;;;;;4987305;28;20243;-42
2022/09/24 01:12:01;;;;;;;4.90;3.70;;;;;;;;;;4986489;28;20190;-41
2022/09/24 01:14:27;;;;;;;6.27;3.93;;;;;;;;;;4987811;28;20181;-42
2022/09/24 01:17:02;;;;;;;5.97;3.53;;;;;;;;;;4989309;28;20169;-44
2022/09/24 01:19:46;;;;;;;4.87;3.70;;;;;;;;;;4991530;28;20180;-42
2022/09/24 01:22:28;;;;;;;4.57;3.50;;;;;;;;;;4987282;28;20177;-43
2022/09/24 01:25:14;;;;;;;5.20;3.10;;;;;;;;;;4982691;28;20195;-41
2022/09/24 01:27:40;;;;;;;4.33;3.03;;;;;;;;;;4986738;28;20185;-42
2022/09/24 01:30:07;;;;;;;3.87;3.03;;;;;;;;;;4989551;28;20189;-44
2022/09/24 01:32:53;;;;;;;4.07;3.20;;;;;;;;;;4986518;28;20727;-43
2022/09/24 01:35:25;;;;;;;3.07;2.73;;;;;;;;;;4982684;28;20173;-44
2022/09/24 01:37:53;;;;;;;4.00;3.00;;;;;;;;;;4986257;28;20200;-44
2022/09/24 01:40:21;;;;;;;4.50;3.00;;;;;;;;;;4988517;28;20178;-44
2022/09/24 01:42:49;;;;;;;5.27;3.23;;;;;;;;;;4986063;28;20181;-44
2022/09/24 01:45:16;;;;;;;4.03;3.00;;;;;;;;;;4983287;28;20292;-42
2022/09/24 01:47:44;;;;;;;4.40;2.93;;;;;;;;;;4986432;28;20284;-43
2022/09/24 01:50:12;;;;;;;6.33;3.00;;;;;;;;;;4989172;28;20768;-45
2022/09/24 01:52:41;;;;;;;3.90;2.90;;;;;;;;;;4988640;28;20243;-43
2022/09/24 01:55:09;;;;;;;7.33;3.43;;;;;;;;;;4982079;28;20169;-43
2022/09/24 01:57:38;;;;;;;4.77;3.30;;;;;;;;;;4983849;28;20204;-44
2022/09/24 02:00:08;;;;;;;5.20;3.00;;;;;;;;;;4987355;28;20296;-44
2022/09/24 02:02:39;;;;;;;5.20;3.47;;;;;;;;;;4980942;28;20191;-44
2022/09/24 02:05:11;;;;;;;4.23;3.30;;;;;;;;;;4983930;28;20177;-44
2022/09/24 02:07:40;;;;;;;5.97;3.67;;;;;;;;;;4977180;28;20173;-42
2022/09/24 02:10:13;;;;;;;8.33;4.03;;;;;;;;;;4981438;28;20680;-43
2022/09/24 02:12:41;;;;;;;4.57;3.47;;;;;;;;;;4982163;28;20173;-43
2022/09/24 02:15:11;;;;;;;3.47;3.17;;;;;;;;;;4982816;28;20169;-42
2022/09/24 02:17:39;;;;;;;4.40;3.37;;;;;;;;;;4984132;28;20168;-41
2022/09/24 02:20:09;;;;;;;4.57;3.17;;;;;;;;;;4977942;28;20177;-42
2022/09/24 02:22:35;;;;;;;4.00;3.43;;;;;;;;;;4987144;28;20172;-42
2022/09/24 02:25:04;;;;;;;5.97;3.00;;;;;;;;;;4984308;28;20478;-42
2022/09/24 02:27:30;;;;;;;5.23;3.47;;;;;;;;;;4986264;28;20344;-42
2022/09/24 02:29:57;;;;;;;4.27;3.10;;;;;;;;;;4984955;28;20534;-42
2022/09/24 02:32:25;;;;;;;7.63;3.07;;;;;;;;;;4986570;28;20188;-42
2022/09/24 02:34:53;;;;;;;3.93;3.20;;;;;;;;;;4983529;28;20657;-42
2022/09/24 02:37:22;;;;;;;3.87;3.30;;;;;;;;;;4983688;28;20180;-43
2022/09/24 02:39:49;;;;;;;3.97;3.23;;;;;;;;;;4986485;28;20173;-42
2022/09/24 02:42:16;;;;;;;7.23;3.57;;;;;;;;;;4985471;28;20319;-43
2022/09/24 02:44:42;;;;;;;5.77;2.90;;;;;;;;;;4981137;28;20839;-42
2022/09/24 02:47:08;;;;;;;4.17;3.10;;;;;;;;;;4987833;28;20180;-42
2022/09/24 02:49:34;;;;;;;6.07;3.40;;;;;;;;;;4986442;28;20812;-43
2022/09/24 02:52:00;;;;;;;5.90;3.33;;;;;;;;;;4989403;28;20773;-42
2022/09/24 02:54:26;;;;;;;7.43;5.10;;;;;;;;;;4985612;28;20243;-42
2022/09/24 02:56:53;;;;;;;6.17;4.20;;;;;;;;;;4984289;28;20683;-42
2022/09/24 02:59:19;;;;;;;6.90;4.93;;;;;;;;;;4982682;28;20929;-45
2022/09/24 03:01:45;;;;;;;8.53;5.63;;;;;;;;;;4987182;28;20173;-42
2022/09/24 03:04:12;;;;;;;7.30;6.30;;;;;;;;;;4985191;28;20892;-42
2022/09/24 03:06:38;;;;;;;9.30;7.17;;;;;;;;;;4987739;28;20184;-43
2022/09/24 03:09:04;;;;;;;11.53;8.50;;;;;;;;;;4980973;28;20566;-42
2022/09/24 03:11:31;;;;;;;13.63;9.27;;;;;;;;;;4981363;28;21082;-42
2022/09/24 03:13:58;;;;;;;10.93;8.27;;;;;;;;;;4984066;28;20177;-41
2022/09/24 03:16:24;;;;;;;9.70;8.00;;;;;;;;;;4985315;28;20366;-43
2022/09/24 03:18:50;;;;;;;9.83;8.83;;;;;;;;;;4988677;28;20472;-42
2022/09/24 03:21:20;;;;;;;14.07;10.07;;;;;;;;;;4986962;28;20622;-42
2022/09/24 03:23:47;;;;;;;14.90;10.73;;;;;;;;;;4988407;28;21434;-42
2022/09/24 03:26:13;;;;;;;11.73;8.57;;;;;;;;;;4986383;28;20848;-43
2022/09/24 03:28:40;;;;;;;10.33;8.50;;;;;;;;;;4989407;28;20601;-43
2022/09/24 03:31:07;;;;;;;13.90;9.37;;;;;;;;;;4985497;28;20924;-42
2022/09/24 03:33:38;;;;;;;11.03;9.23;;;;;;;;;;4985291;28;20499;-43
2022/09/24 03:36:06;;;;;;;12.73;8.90;;;;;;;;;;4983299;28;21009;-42
2022/09/24 03:38:32;;;;;;;12.60;9.60;;;;;;;;;;4987234;28;20173;-43
2022/09/24 03:40:59;;;;;;;15.83;10.47;;;;;;;;;;4987215;28;20983;-42
2022/09/24 03:43:25;;;;;;;12.30;9.23;;;;;;;;;;4987264;28;20173;-41
2022/09/24 03:45:52;;;;;;;12.57;10.13;;;;;;;;;;4984992;28;20502;-43
2022/09/24 03:48:18;;;;;;;11.63;8.93;;;;;;;;;;4986570;28;20181;-42
2022/09/24 03:50:45;;;;;;;11.20;9.63;;;;;;;;;;4987673;28;20200;-43
2022/09/24 03:53:11;;;;;;;12.57;9.20;;;;;;;;;;4988164;28;20187;-43
2022/09/24 03:55:41;;;;;;;13.03;9.73;;;;;;;;;;4988059;28;20506;-42
2022/09/24 03:58:07;;;;;;;11.63;9.17;;;;;;;;;;4985043;28;20880;-41
2022/09/24 04:00:33;;;;;;;11.70;9.23;;;;;;;;;;4983904;28;20597;-42
2022/09/24 04:02:59;;;;;;;10.53;8.57;;;;;;;;;;4985809;28;20189;-42
2022/09/24 04:05:26;;;;;;;11.17;8.67;;;;;;;;;;4988685;28;20469;-43
2022/09/24 04:07:52;;;;;;;9.33;8.27;;;;;;;;;;4990588;28;20172;-43
2022/09/24 04:10:18;;;;;;;9.30;8.30;;;;;;;;;;4989496;28;20285;-43
2022/09/24 04:12:44;;;;;;;10.50;8.00;;;;;;;;;;4983890;28;20609;-43
2022/09/24 04:15:11;;;;;;;11.83;8.27;;;;;;;;;;4990654;28;20184;-40
2022/09/24 04:17:37;;;;;;;10.13;8.70;;;;;;;;;;4986694;28;20294;-41
2022/09/24 04:20:04;;;;;;;9.93;7.93;;;;;;;;;;4988125;28;20596;-42
2022/09/24 04:22:30;;;;;;;10.83;8.10;;;;;;;;;;4986909;28;20549;-42
2022/09/24 04:24:56;;;;;;;8.70;6.90;;;;;;;;;;4984087;28;20173;-40
2022/09/24 04:27:23;;;;;;;8.03;6.90;;;;;;;;;;4987082;28;20193;-42
2022/09/24 04:29:49;;;;;;;10.27;7.90;;;;;;;;;;4988127;28;20251;-42
2022/09/24 04:32:15;;;;;;;9.37;8.03;;;;;;;;;;4984439;28;20878;-42
2022/09/24 04:34:41;;;;;;;10.93;8.10;;;;;;;;;;4987978;28;20181;-42
2022/09/24 04:37:08;;;;;;;15.23;9.00;;;;;;;;;;4985918;28;20190;-42
2022/09/24 04:39:34;;;;;;;9.73;8.00;;;;;;;;;;4986802;28;20243;-42
2022/09/24 04:42:00;;;;;;;14.40;8.73;;;;;;;;;;4984469;28;20173;-43
2022/09/24 04:44:27;;;;;;;12.57;7.93;;;;;;;;;;4982790;28;21009;-42
2022/09/24 04:47:01;;;;;;;14.00;8.57;;;;;;;;;;4987480;28;20183;-42
2022/09/24 04:49:28;;;;;;;11.23;7.70;;;;;;;;;;4989053;28;20239;-43
2022/09/24 04:51:56;;;;;;;13.10;8.70;;;;;;;;;;4991232;28;20207;-42
2022/09/24 04:54:23;;;;;;;13.60;8.50;;;;;;;;;;4988657;28;20724;-43
2022/09/24 04:56:49;;;;;;;11.43;8.17;;;;;;;;;;4985253;28;20505;-42
2022/09/24 04:59:15;;;;;;;11.83;7.80;;;;;;;;;;4984944;28;20284;-42
2022/09/24 05:01:41;;;;;;;11.73;7.80;;;;;;;;;;4988025;28;20185;-43
2022/09/24 05:04:07;;;;;;;11.57;8.37;;;;;;;;;;4985786;28;20177;-43
2022/09/24 05:06:35;;;;;;;12.70;8.60;;;;;;;;;;4990471;28;20984;-42
2022/09/24 05:09:01;;;;;;;10.47;8.03;;;;;;;;;;4985212;28;20247;-43
2022/09/24 05:11:27;;;;;;;11.77;8.87;;;;;;;;;;4983632;28;20616;-43
2022/09/24 05:13:54;;;;;;;14.20;10.17;;;;;;;;;;4988250;28;20311;-42
2022/09/24 05:16:20;;;;;;;14.23;10.17;;;;;;;;;;4989219;28;20215;-43
2022/09/24 05:18:46;;;;;;;13.67;10.20;;;;;;;;;;4987747;28;20177;-42
2022/09/24 05:21:12;;;;;;;12.43;9.67;;;;;;;;;;4982675;28;20312;-41
2022/09/24 05:23:38;;;;;;;13.87;10.47;;;;;;;;;;4983969;28;20181;-42
2022/09/24 05:28:49;;;;;;;16.60;11.23;;;;;;;;;;4989050;28;20504;-43
2022/09/24 05:31:16;;;;;;;18.53;11.10;;;;;;;;;;4984721;28;20981;-42
2022/09/24 05:33:42;;;;;;;15.10;10.83;;;;;;;;;;4984702;28;20346;-42
2022/09/24 05:36:08;;;;;;;17.60;11.53;;;;;;;;;;4981771;28;20394;-41
2022/09/24 05:38:34;;;;;;;16.80;11.03;;;;;;;;;;4983778;28;20209;-41
2022/09/24 05:41:00;;;;;;;15.10;10.87;;;;;;;;;;4982996;28;20629;-42
2022/09/24 05:43:26;;;;;;;14.47;10.63;;;;;;;;;;4985193;28;20184;-43
2022/09/24 05:45:53;;;;;;;15.73;9.80;;;;;;;;;;4986204;28;20227;-42
2022/09/24 05:48:20;;;;;;;17.73;10.27;;;;;;;;;;4982906;28;20215;-42
2022/09/24 05:50:46;;;;;;;13.70;10.57;;;;;;;;;;4981678;28;20208;-43
2022/09/24 05:53:12;;;;;;;16.57;10.47;;;;;;;;;;4983445;28;20705;-43
2022/09/24 05:55:39;;;;;;;16.33;10.67;;;;;;;;;;4986154;28;20337;-44
2022/09/24 05:58:09;;;;;;;18.90;10.47;;;;;;;;;;4983348;28;20669;-42
2022/09/24 06:00:36;;;;;;;16.50;10.30;;;;;;;;;;4981627;28;20177;-42
2022/09/24 06:03:06;;;;;;;13.63;10.43;;;;;;;;;;4975779;28;21863;-42
2022/09/24 06:05:34;;;;;;;13.47;10.17;;;;;;;;;;4986684;28;20205;-43
2022/09/24 06:08:01;;;;;;;15.23;10.10;;;;;;;;;;4983674;28;20599;-42
2022/09/24 06:10:27;;;;;;;12.27;9.90;;;;;;;;;;4984667;28;20640;-42
2022/09/24 06:12:53;;;;;;;14.40;11.23;;;;;;;;;;4976614;28;20247;-42
2022/09/24 06:15:20;;;;;;;15.27;10.47;;;;;;;;;;4985800;28;20178;-42
2022/09/24 06:17:46;;;;;;;13.07;9.40;;;;;;;;;;4986765;28;20250;-42
2022/09/24 06:20:12;;;;;;;11.37;8.90;;;;;;;;;;4983684;28;20361;-42
2022/09/24 06:22:39;;;;;;;10.67;9.13;;;;;;;;;;4980212;28;20547;-42
2022/09/24 06:25:06;;;;;;;10.63;9.13;;;;;;;;;;4983028;28;20185;-42
2022/09/24 06:27:32;;;;;;;12.07;8.93;;;;;;;;;;4981113;28;20192;-42
2022/09/24 06:29:58;;;;;;;11.30;9.07;;;;;;;;;;4984625;28;20472;-44
2022/09/24 06:32:24;;;;;;;13.73;9.63;;;;;;;;;;4983488;28;20169;-41
2022/09/24 06:34:50;;;;;;;20.10;10.30;;;;;;;;;;4983330;28;20183;-42
2022/09/24 06:37:16;;;;;;;13.97;8.93;;;;;;;;;;4982963;28;20181;-43
2022/09/24 06:39:43;;;;;;;18.80;9.40;;;;;;;;;;4987401;28;20189;-43
2022/09/24 06:42:09;;;;;;;18.00;8.67;;;;;;;;;;4985588;28;20185;-43
2022/09/24 06:44:35;;;;;;;13.60;8.77;;;;;;;;;;4986804;28;20589;-43
2022/09/24 06:47:01;;;;;;;19.60;9.40;;;;;;;;;;4983336;28;20246;-43
2022/09/24 06:49:28;;;;;;;12.43;8.70;;;;;;;;;;4979654;28;20220;-41
2022/09/24 06:51:54;;;;;;;13.53;8.43;;;;;;;;;;4983982;28;20609;-43
2022/09/24 06:54:21;;;;;;;12.37;8.57;;;;;;;;;;4988765;28;20181;-43
2022/09/24 06:56:47;;;;;;;13.00;8.43;;;;;;;;;;4982725;28;21042;-43
2022/09/24 06:59:13;;;;;;;13.33;8.13;;;;;;;;;;4979707;28;20176;-43
2022/09/24 07:01:40;;;;;;;12.83;8.17;;;;;;;;;;4979861;28;20188;-43
2022/09/24 07:04:06;;;;;;;10.90;8.20;;;;;;;;;;4983769;28;22170;-43
2022/09/24 07:09:18;;;;;;;14.17;11.77;;;;;;;;;;4988862;28;20192;-44
2022/09/24 07:11:45;;;;;;;10.93;9.13;;;;;;;;;;4983092;28;20204;-44
2022/09/24 07:14:12;;;;;;;10.97;7.27;;;;;;;;;;4979742;28;20172;-42
2022/09/24 07:16:38;;;;;;;10.27;7.27;;;;;;;;;;4985563;28;20195;-43
2022/09/24 07:19:04;;;;;;;10.00;7.20;;;;;;;;;;4980949;28;20595;-43
2022/09/24 07:21:30;;;;;;;9.23;5.37;;;;;;;;;;4978256;28;21212;-43
2022/09/24 07:23:56;;;;;;;6.10;4.77;;;;;;;;;;4981110;28;20185;-42
2022/09/24 07:26:22;;;;;;;7.27;4.60;;;;;;;;;;4981813;28;20180;-43
2022/09/24 07:28:48;;;;;;;6.50;4.10;;;;;;;;;;4983244;28;20199;-45
2022/09/24 07:31:16;;;;;;;8.30;3.93;;;;;;;;;;4982308;28;20349;-43
2022/09/24 07:33:42;;;;;;;6.67;3.83;;;;;;;;;;4980703;28;20185;-43
2022/09/24 07:36:08;;;;;;;5.00;3.60;;;;;;;;;;4985274;28;20739;-43
2022/09/24 07:38:37;;;;;;;5.57;3.90;;;;;;;;;;4983426;28;20184;-43
2022/09/24 07:41:04;;;;;;;7.20;4.33;;;;;;;;;;4984336;28;20184;-43
2022/09/24 07:43:32;;;;;;;9.80;6.23;;;;;;;;;;4987271;28;20181;-43
2022/09/24 07:45:58;;;;;;;10.70;6.73;;;;;;;;;;4986747;28;20180;-42
2022/09/24 07:48:24;;;;;;;8.27;6.73;;;;;;;;;;4983180;28;20220;-43
2022/09/24 07:50:50;;;;;;;11.73;6.40;;;;;;;;;;4983710;28;20979;-43
2022/09/24 07:53:16;;;;;;;8.87;5.80;;;;;;;;;;4981870;28;20426;-43
2022/09/24 07:55:43;;;;;;;9.13;5.63;;;;;;;;;;4986022;28;20848;-43
2022/09/24 07:58:12;;;;;;;8.73;4.83;;;;;;;;;;4983869;28;20663;-43
2022/09/24 08:00:39;;;;;;;9.17;5.47;;;;;;;;;;4980603;28;20739;-45
2022/09/24 08:03:06;;;;;;;10.23;5.87;;;;;;;;;;4980825;28;20692;-43
2022/09/24 08:05:32;;;;;;;11.40;5.80;;;;;;;;;;4984714;28;20928;-43
2022/09/24 08:07:58;;;;;;;12.40;6.47;;;;;;;;;;4986935;28;20507;-43
2022/09/24 08:10:27;;;;;;;10.83;6.07;;;;;;;;;;4986686;28;20767;-43
2022/09/24 08:12:55;;;;;;;8.03;5.33;;;;;;;;;;4988335;28;20533;-43
2022/09/24 08:15:21;;;;;;;7.27;4.43;;;;;;;;;;4985191;28;20542;-43
2022/09/24 08:17:47;;;;;;;6.13;4.50;;;;;;;;;;4985467;28;20185;-43
2022/09/24 08:20:13;;;;;;;6.47;3.90;;;;;;;;;;4986392;28;20631;-44
2022/09/24 08:22:39;;;;;;;7.97;3.60;;;;;;;;;;4985966;28;20189;-42
2022/09/24 08:25:06;;;;;;;4.90;3.60;;;;;;;;;;4992044;28;20192;-43
2022/09/24 08:27:35;;;;;;;5.53;3.50;;;;;;;;;;4986561;28;20948;-43
2022/09/24 08:30:01;;;;;;;5.70;3.93;;;;;;;;;;4981160;28;20204;-43
2022/09/24 08:32:30;;;;;;;5.20;3.50;;;;;;;;;;4980110;28;20674;-43
2022/09/24 08:34:57;;;;;;;6.70;3.87;;;;;;;;;;4975542;28;20615;-44
2022/09/24 08:37:23;;;;;;;5.10;3.30;;;;;;;;;;4976480;28;20364;-43
2022/09/24 08:39:49;;;;;;;4.73;3.07;;;;;;;;;;4984183;28;20186;-43
2022/09/24 08:42:33;;;;;;;5.80;3.20;;;;;;;;;;4986026;28;20177;-43
2022/09/24 08:47:53;;;;;;;7.17;3.80;;;;;;;;;;4985416;28;20802;-43
2022/09/24 08:50:28;;;;;;;7.73;3.57;;;;;;;;;;4990851;28;20864;-42
2022/09/24 08:53:00;;;;;;;7.43;3.90;;;;;;;;;;4988057;28;20451;-43
2022/09/24 08:55:33;;;;;;;7.90;4.00;;;;;;;;;;4992824;28;20820;-43
2022/09/24 08:58:08;;;;;;;7.80;4.10;;;;;;;;;;4987974;28;20510;-42
2022/09/24 09:00:39;;;;;;;8.50;4.07;;;;;;;;;;4987920;28;20618;-43
2022/09/24 09:03:19;;;;;;;7.33;3.97;;;;;;;;;;4986917;28;20278;-43
2022/09/24 09:05:56;;;;;;;7.33;3.50;;;;;;;;;;4989611;28;20196;-43
2022/09/24 09:08:33;;;;;;;14.67;4.20;;;;;;;;;;4987092;28;21047;-43
2022/09/24 09:11:02;;;;;;;6.00;3.00;;;;;;;;;;4984936;28;20565;-43
2022/09/24 09:13:32;;;;;;;19.57;4.23;;;;;;;;;;4988499;28;20264;-43
2022/09/24 09:16:05;;;;;;;14.90;3.70;;;;;;;;;;4993357;28;20584;-44
2022/09/24 09:18:36;;;;;;;7.23;3.50;;;;;;;;;;4993824;28;20360;-44
2022/09/24 09:21:28;;;;;;;5.03;3.10;;;;;;;;;;4987745;28;20212;-44
2022/09/24 09:23:56;;;;;;;5.30;3.07;;;;;;;;;;4991162;28;20189;-43
2022/09/24 09:26:22;;;;;;;5.03;2.90;;;;;;;;;;4987056;28;20348;-43
2022/09/24 09:28:49;;;;;;;4.10;3.60;;;;;;;;;;5018715;28;20188;-43
2022/09/24 09:31:17;;;;;;;7.90;3.83;;;;;;;;;;4989656;28;20251;-43
2022/09/24 09:33:58;;;;;;;5.27;3.60;;;;;;;;;;4984366;28;20588;-43
2022/09/24 09:36:24;;;;;;;5.37;3.30;;;;;;;;;;4985236;28;20499;-43
2022/09/24 09:39:09;;;;;;;8.30;3.13;;;;;;;;;;4991329;28;20284;-43
2022/09/24 09:41:40;;;;;;;5.53;3.50;;;;;;;;;;4991026;28;20284;-43
2022/09/24 09:44:25;;;;;;;5.33;2.77;;;;;;;;;;4990549;28;20221;-43
2022/09/24 09:47:00;;;;;;;4.43;2.83;;;;;;;;;;4986755;28;20462;-43
2022/09/24 09:49:28;;;;;;;5.77;3.20;;;;;;;;;;4986765;28;20555;-40
2022/09/24 09:51:56;;;;;;;4.73;2.80;;;;;;;;;;4986937;28;20215;-42
2022/09/24 09:54:22;;;;;;;4.97;2.60;;;;;;;;;;4988880;28;20193;-42
2022/09/24 09:56:49;;;;;;;4.17;2.47;;;;;;;;;;4986631;28;20751;-42
2022/09/24 09:59:21;;;;;;;5.27;2.93;;;;;;;;;;4982956;28;20802;-42
2022/09/24 10:01:49;;;;;;;4.17;2.73;;;;;;;;;;4985900;28;20173;-43
2022/09/24 10:04:23;;;;;;;4.07;2.50;;;;;;;;;;5017834;28;20187;-43
2022/09/24 10:06:49;;;;;;;3.00;2.70;;;;;;;;;;4990039;28;20182;-43
2022/09/24 10:09:18;;;;;;;4.60;2.33;;;;;;;;;;4985204;28;20920;-42
2022/09/24 10:11:44;;;;;;;5.70;2.60;;;;;;;;;;4984931;28;20756;-42
2022/09/24 10:14:15;;;;;;;3.73;2.37;;;;;;;;;;4988670;28;20173;-40
2022/09/24 10:16:43;;;;;;;3.97;2.20;;;;;;;;;;4988865;28;20177;-44
2022/09/24 10:19:26;;;;;;;5.23;2.13;;;;;;;;;;4999726;28;20248;-44
2022/09/24 10:21:54;;;;;;;3.07;2.10;;;;;;;;;;4987211;28;20569;-45
2022/09/24 10:24:22;;;;;;;4.50;2.53;;;;;;;;;;4990080;28;20191;-44
2022/09/24 10:26:48;;;;;;;6.07;2.73;;;;;;;;;;4989913;28;20220;-43
2022/09/24 10:32:03;;;;;;;3.67;2.33;;;;;;;;;;4984330;28;20472;-42
2022/09/24 10:34:30;;;;;;;8.23;2.43;;;;;;;;;;4983435;28;20187;-42
2022/09/24 10:36:59;;;;;;;8.27;2.77;;;;;;;;;;4987688;28;20425;-42
2022/09/24 10:39:25;;;;;;;6.20;2.80;;;;;;;;;;4989376;28;20667;-42
2022/09/24 10:41:52;;;;;;;5.70;2.70;;;;;;;;;;4989806;28;20786;-42
2022/09/24 10:44:20;;;;;;;8.33;2.57;;;;;;;;;;4982708;28;20177;-42
2022/09/24 10:47:06;;;;;;;10.90;2.63;;;;;;;;;;4984869;28;20663;-42
2022/09/24 10:49:51;;;;;;;6.57;2.50;;;;;;;;;;4985460;28;20183;-42
2022/09/24 10:52:21;;;;;;;4.17;2.20;;;;;;;;;;4989957;28;20940;-42
2022/09/24 10:55:06;;;;;;;2.90;2.07;;;;;;;;;;4987041;28;20183;-42
2022/09/24 10:57:42;;;;;;;3.23;2.17;;;;;;;;;;4988000;28;20967;-43
2022/09/24 11:00:21;;;;;;;3.80;2.20;;;;;;;;;;4987456;28;20180;-42
2022/09/24 11:03:02;;;;;;;3.60;2.40;;;;;;;;;;4987258;28;20767;-42
2022/09/24 11:05:31;;;;;;;4.07;2.20;;;;;;;;;;4981852;28;20455;-42
2022/09/24 11:08:00;;;;;;;3.37;2.10;;;;;;;;;;4980320;28;20184;-40
2022/09/24 11:10:26;;;;;;;4.33;2.50;;;;;;;;;;4982392;28;21691;-42
2022/09/24 11:13:13;;;;;;;4.43;2.50;;;;;;;;;;4983954;28;20772;-43
2022/09/24 11:15:54;;;;;;;4.40;2.00;;;;;;;;;;4986208;28;20828;-42
2022/09/24 11:18:39;;;;;;;4.40;2.20;;;;;;;;;;4977838;28;20199;-43
2022/09/24 11:21:20;;;;;;;3.60;2.30;;;;;;;;;;4981917;28;20173;-42
2022/09/24 11:23:54;;;;;;;3.13;2.13;;;;;;;;;;4983516;28;20534;-42
2022/09/24 11:26:39;;;;;;;4.70;3.07;;;;;;;;;;4986345;28;20205;-42
2022/09/24 11:29:14;;;;;;;4.53;2.73;;;;;;;;;;4982357;28;20632;-44
2022/09/24 11:31:43;;;;;;;3.47;2.37;;;;;;;;;;4983458;28;20211;-43
2022/09/24 11:34:12;;;;;;;4.30;2.77;;;;;;;;;;4987248;28;21006;-43
2022/09/24 11:36:42;;;;;;;4.27;2.33;;;;;;;;;;4987597;28;20180;-43
2022/09/24 11:39:26;;;;;;;4.43;2.60;;;;;;;;;;4985425;28;20243;-43
2022/09/24 11:41:59;;;;;;;4.67;2.50;;;;;;;;;;4990202;28;20191;-43
2022/09/24 11:44:40;;;;;;;3.90;2.30;;;;;;;;;;4981061;28;20769;-42
2022/09/24 11:47:20;;;;;;;5.33;2.50;;;;;;;;;;4983327;28;20268;-44
2022/09/24 11:49:49;;;;;;;5.07;2.93;;;;;;;;;;4985464;28;20452;-44
2022/09/24 11:52:23;;;;;;;5.83;3.00;;;;;;;;;;4989267;28;20301;-43
2022/09/24 11:54:56;;;;;;;5.30;2.80;;;;;;;;;;4990799;28;20173;-43
2022/09/24 11:57:28;;;;;;;6.90;2.93;;;;;;;;;;4987939;28;20222;-43
2022/09/24 11:59:54;;;;;;;5.27;3.00;;;;;;;;;;4989856;28;20425;-43
2022/09/24 12:02:24;;;;;;;7.77;3.10;;;;;;;;;;4988941;28;20436;-43
2022/09/24 12:04:54;;;;;;;7.17;3.00;;;;;;;;;;5003747;28;20273;-43
2022/09/24 12:07:43;;;;;;;7.70;3.27;;;;;;;;;;4991072;28;20200;-43
2022/09/24 12:10:20;;;;;;;7.00;3.30;;;;;;;;;;4983254;28;20983;-43
2022/09/24 12:12:49;;;;;;;9.30;3.63;;;;;;;;;;4987430;28;20579;-44
2022/09/24 12:15:20;;;;;;;5.80;3.63;;;;;;;;;;4988771;28;20177;-42
2022/09/24 12:17:52;;;;;;;5.93;3.40;;;;;;;;;;4984955;28;20247;-41
2022/09/24 12:20:21;;;;;;;7.93;4.00;;;;;;;;;;4983130;28;20243;-41
2022/09/24 12:22:50;;;;;;;6.10;3.23;;;;;;;;;;4983462;28;20893;-39
2022/09/24 12:25:16;;;;;;;8.80;4.20;;;;;;;;;;4983457;28;20677;-40
2022/09/24 12:27:43;;;;;;;6.83;3.80;;;;;;;;;;4985362;28;20197;-41
2022/09/24 12:33:20;;;;;;;6.03;4.27;;;;;;;;;;4979517;28;20476;-41
2022/09/24 12:36:00;;;;;;;7.97;4.40;;;;;;;;;;4979579;28;20182;-42
2022/09/24 12:38:36;;;;;;;9.17;4.80;;;;;;;;;;4984365;28;20172;-41
2022/09/24 12:41:16;;;;;;;4.63;3.80;;;;;;;;;;4988222;28;20626;-40
2022/09/24 12:44:01;;;;;;;6.30;4.60;;;;;;;;;;4988488;28;21021;-39
2022/09/24 12:46:45;;;;;;;9.20;4.90;;;;;;;;;;4988814;28;20506;-42
2022/09/24 12:49:17;;;;;;;9.23;5.27;;;;;;;;;;4986893;28;20885;-42
2022/09/24 12:51:44;;;;;;;9.73;5.53;;;;;;;;;;4988287;28;20194;-41
2022/09/24 12:54:29;;;;;;;8.33;5.60;;;;;;;;;;4990853;28;20510;-42
2022/09/24 12:57:15;;;;;;;8.90;6.53;;;;;;;;;;4991291;28;20173;-41
2022/09/24 12:59:50;;;;;;;9.93;6.20;;;;;;;;;;4987558;28;20695;-41
2022/09/24 13:02:18;;;;;;;8.40;6.03;;;;;;;;;;4986162;28;20355;-41
2022/09/24 13:04:50;;;;;;;8.00;6.20;;;;;;;;;;4992471;28;20691;-42
2022/09/24 13:07:29;;;;;;;8.47;5.87;;;;;;;;;;4988933;28;20228;-42
2022/09/24 13:09:55;;;;;;;9.73;6.50;;;;;;;;;;4987226;28;20199;-41
2022/09/24 13:12:23;;;;;;;10.57;6.63;;;;;;;;;;4990297;28;20738;-41
2022/09/24 13:14:55;;;;;;;9.70;6.53;;;;;;;;;;4985945;28;20483;-42
2022/09/24 13:17:22;;;;;;;11.97;7.97;;;;;;;;;;4980713;28;20265;-42
2022/09/24 13:19:49;;;;;;;10.60;8.53;;;;;;;;;;4984348;28;21056;-41
2022/09/24 13:22:25;;;;;;;11.17;7.20;;;;;;;;;;4986176;28;20489;-40
2022/09/24 13:25:11;;;;;;;8.20;6.87;;;;;;;;;;4983560;28;20184;-40
2022/09/24 13:27:41;;;;;;;8.60;7.23;;;;;;;;;;4975672;28;20315;-42
2022/09/24 13:30:30;;;;;;;11.47;7.60;;;;;;;;;;4971879;28;20173;-43
2022/09/24 13:32:59;;;;;;;11.50;8.40;;;;;;;;;;4975952;28;21024;-43
2022/09/24 13:35:28;;;;;;;9.90;7.93;;;;;;;;;;4980872;28;20260;-42
2022/09/24 13:38:00;;;;;;;12.73;9.50;;;;;;;;;;4976528;28;20177;-43
2022/09/24 13:40:33;;;;;;;14.70;8.93;;;;;;;;;;4975365;28;21055;-43
2022/09/24 13:43:10;;;;;;;14.97;10.60;;;;;;;;;;4975355;28;20224;-40
2022/09/24 13:45:41;;;;;;;13.73;10.47;;;;;;;;;;4985502;28;20381;-41
2022/09/24 13:48:17;;;;;;;16.03;11.17;;;;;;;;;;4987181;28;20723;-42
2022/09/24 13:50:48;;;;;;;13.77;10.77;;;;;;;;;;4982077;28;20629;-42
2022/09/24 13:53:17;;;;;;;13.40;10.20;;;;;;;;;;4982031;28;20668;-42
2022/09/24 13:55:44;;;;;;;18.17;11.73;;;;;;;;;;4984901;28;21007;-42
2022/09/24 13:58:37;;;;;;;16.20;12.07;;;;;;;;;;4983149;28;20173;-42
2022/09/24 14:01:05;;;;;;;15.70;11.50;;;;;;;;;;4986053;28;20181;-44
2022/09/24 14:03:32;;;;;;;15.97;12.97;;;;;;;;;;4977450;28;20451;-44
2022/09/24 14:06:08;;;;;;;17.27;13.43;;;;;;;;;;4976745;28;20235;-43
2022/09/24 14:08:35;;;;;;;16.97;13.80;;;;;;;;;;4979870;28;20225;-42
2022/09/24 14:11:07;;;;;;;16.73;11.97;;;;;;;;;;4976778;28;21147;-43
2022/09/24 14:13:44;;;;;;;16.70;11.40;;;;;;;;;;4978647;28;20177;-43
2022/09/24 14:16:14;;;;;;;11.90;10.50;;;;;;;;;;4983895;28;20261;-43
2022/09/24 14:18:40;;;;;;;14.33;10.00;;;;;;;;;;4980344;28;20356;-43
2022/09/24 14:21:16;;;;;;;12.30;10.87;;;;;;;;;;4978956;28;20668;-43
2022/09/24 14:23:53;;;;;;;12.53;10.63;;;;;;;;;;4984827;28;21251;-44
2022/09/24 14:26:39;;;;;;;14.40;11.00;;;;;;;;;;4982787;28;20869;-43
2022/09/24 14:29:11;;;;;;;13.83;12.17;;;;;;;;;;4979693;28;20665;-42
2022/09/24 14:31:43;;;;;;;14.37;11.30;;;;;;;;;;4983929;28;20288;-42
2022/09/24 14:34:18;;;;;;;13.13;10.93;;;;;;;;;;4979470;28;20177;-40
2022/09/24 14:36:45;;;;;;;12.97;11.30;;;;;;;;;;4978244;28;20404;-41
2022/09/24 14:39:12;;;;;;;12.73;11.07;;;;;;;;;;4985309;28;20194;-42
2022/09/24 14:41:38;;;;;;;14.37;11.23;;;;;;;;;;4984212;28;20653;-42
2022/09/24 14:44:12;;;;;;;13.10;11.43;;;;;;;;;;4982102;28;20287;-42
2022/09/24 14:46:47;;;;;;;12.27;10.17;;;;;;;;;;4981267;28;20181;-42
2022/09/24 14:49:18;;;;;;;13.10;10.30;;;;;;;;;;4979745;28;20180;-42
2022/09/24 14:51:51;;;;;;;11.43;9.67;;;;;;;;;;4989864;28;20319;-41
2022/09/24 14:54:39;;;;;;;10.87;9.50;;;;;;;;;;4985880;28;20261;-44
2022/09/24 14:57:23;;;;;;;12.77;9.73;;;;;;;;;;4988409;28;20798;-44
2022/09/24 14:59:49;;;;;;;13.53;10.60;;;;;;;;;;4974179;28;20207;-42
2022/09/24 15:02:24;;;;;;;11.57;9.83;;;;;;;;;;4976357;28;20254;-42
2022/09/24 15:04:52;;;;;;;12.77;9.63;;;;;;;;;;4977262;28;20207;-42
2022/09/24 15:07:21;;;;;;;11.20;9.80;;;;;;;;;;4979325;28;20630;-42